Roosevelt, Louisiana
Current Conditions -  °F | °C
As of 11:53 PM on Wednesday 22 Oct 2014 (Local Time) from KTVR Reporting Station
Clear Clear  
Wind Chill: 51°   Ceiling: Unl
Heat Index: 51°   Visibility: 10mi
Dew Point: 47°   Wind: 5mph
Humidity: 86%   Direction: 50°NE
Pressure: 30.14"   Gusts: NA
Location:  32.5752°N, 91.2825°W
Report Text: KTVR 230453Z AUTO 05004KT 10SM CLR 11/08 A3014 RMK AO2 SLP213 T01060083
Loading
Personal Weather Stations






























Interactive Weather Map
Tropical Storm Tracking
New forecast layout! Learn more

10-Day Weather Forecast

Advertisements
Track Severe Weather on mobile